| time (UTC) | temp F | wind direction | speed knots | gust knots | rain 1hr in | rain 24hr in | rain mn in | humidity % | barometer mb |
| 20260505171555 | 37 | 255 | 0.9 | 0.0 | 0.00 | 0.00 | 0.01 | 90 | 1007.6 |
| 20260505170047 | 37 | 243 | 0.0 | 0.0 | 0.00 | 0.00 | 0.01 | 89 | 1007.6 |
| 20260505164539 | 38 | 267 | 0.9 | 0.0 | 0.00 | 0.00 | 0.01 | 89 | 1007.6 |
| 20260505163024 | 38 | 237 | 0.0 | 0.0 | 0.00 | 0.00 | 0.01 | 88 | 1007.2 |
| 20260505161505 | 38 | 266 | 0.0 | 0.0 | 0.00 | 0.00 | 0.01 | 87 | 1007.2 |
| 20260505153033 | 39 | 254 | 0.0 | 0.0 | 0.00 | 0.00 | 0.01 | 85 | 1006.7 |
| 20260505151517 | 39 | 276 | 0.0 | 0.0 | 0.00 | 0.00 | 0.01 | 83 | 1006.9 |
| 20260505124529 | 41 | 18 | 0.0 | 0.0 | 0.00 | 0.00 | 0.01 | 81 | 1004.2 |
| 20260505123028 | 41 | 18 | 0.0 | 0.0 | 0.00 | 0.00 | 0.01 | 81 | 1002.1 |
| 20260505121559 | 41 | 18 | 0.0 | 0.0 | 0.00 | 0.00 | 0.01 | 80 | 1001.7 |
| 20260505121503 | 41 | 18 | 0.0 | 0.0 | 0.00 | 0.00 | 0.01 | 80 | 1001.7 |
| 20260505120053 | 41 | 18 | 0.0 | 0.0 | 0.00 | 0.00 | 0.01 | 80 | 1001.7 |
| 20260505114543 | 41 | 18 | 0.0 | 0.0 | 0.00 | 0.00 | 0.01 | 80 | 1001.5 |
| 20260505113028 | 41 | 18 | 0.0 | 0.0 | 0.00 | 0.00 | 0.01 | 82 | 1001.0 |
| 20260505111520 | 41 | 18 | 0.0 | 0.0 | 0.00 | 0.00 | 0.01 | 84 | 1001.0 |
| 20260505101548 | 41 | 18 | 0.0 | 0.0 | 0.00 | 0.00 | 0.01 | 85 | 1001.4 |
| 20260505100030 | 41 | 18 | 0.0 | 0.0 | 0.00 | 0.00 | 0.01 | 84 | 1001.1 |
| 20260505094554 | 42 | 18 | 0.0 | 0.0 | 0.00 | 0.00 | 0.01 | 84 | 1001.2 |
| 20260505093100 | 42 | 18 | 0.0 | 0.0 | 0.00 | 0.00 | 0.01 | 82 | 999.0 |
| 20260505091534 | 43 | 18 | 0.0 | 0.0 | 0.00 | 0.00 | 0.01 | 81 | 998.7 |
| 20260505090024 | 43 | 18 | 0.0 | 0.0 | 0.00 | 0.00 | 0.01 | 81 | 999.3 |
| 20260505084506 | 43 | 18 | 0.0 | 0.0 | 0.00 | 0.00 | 0.01 | 80 | 999.4 |
| 20260505083050 | 44 | 18 | 0.0 | 0.0 | 0.00 | 0.00 | 0.01 | 80 | 999.3 |
| 20260505081535 | 44 | 18 | 0.0 | 0.0 | 0.00 | 0.00 | 0.01 | 81 | 999.5 |
| 20260505080024 | 44 | 18 | 0.0 | 0.0 | 0.00 | 0.00 | 0.01 | 81 | 999.4 |
| 20260505074510 | 44 | 18 | 0.0 | 0.0 | 0.00 | 0.00 | 0.01 | 81 | 999.3 |
| 20260505073103 | 44 | 18 | 0.0 | 0.0 | 0.00 | 0.00 | 0.01 | 82 | 997.6 |
| 20260505071550 | 45 | 18 | 0.0 | 0.0 | 0.00 | 0.00 | 0.01 | 83 | 997.6 |
| 20260505070032 | 45 | 18 | 0.0 | 0.0 | 0.00 | 0.00 | 0.01 | 83 | 997.1 |
| 20260505064521 | 45 | 18 | 0.0 | 0.0 | 0.00 | 0.00 | 0.01 | 82 | 997.0 |
| 20260505063114 | 46 | 18 | 0.0 | 0.0 | 0.00 | 0.00 | 0.01 | 81 | 997.9 |
| 20260505063004 | 46 | 18 | 0.0 | 0.0 | 0.00 | 0.00 | 0.01 | 81 | 997.9 |
| 20260505061542 | 46 | 18 | 0.0 | 0.0 | 0.00 | 0.00 | 0.00 | 80 | 998.2 |
| 20260505060030 | 47 | 18 | 0.0 | 0.0 | 0.00 | 0.00 | 0.00 | 77 | 998.8 |
| 20260505054510 | 47 | 18 | 0.0 | 0.0 | 0.00 | 0.00 | 0.00 | 75 | 998.5 |
| 20260505053054 | 47 | 18 | 0.0 | 0.0 | 0.00 | 0.00 | 0.00 | 73 | 998.9 |
| 20260505051548 | 47 | 18 | 0.0 | 0.0 | 0.00 | 0.00 | 0.00 | 71 | 999.0 |
| 20260505041513 | 47 | 18 | 0.0 | 0.0 | 0.00 | 0.00 | 0.00 | 70 | 999.3 |
| 20260505040058 | 47 | 18 | 0.0 | 0.0 | 0.00 | 0.00 | 0.00 | 70 | 999.2 |
| 20260505040001 | 48 | 18 | 0.0 | 0.0 | 0.00 | 0.00 | 0.00 | 69 | 999.2 |
| 20260505034550 | 48 | 18 | 0.9 | 0.0 | 0.00 | 0.00 | 0.00 | 68 | 999.3 |
| 20260505033040 | 48 | 19 | 0.0 | 0.0 | 0.00 | 0.00 | 0.00 | 69 | 1000.1 |
| 20260505031538 | 48 | 19 | 0.0 | 0.0 | 0.00 | 0.00 | 0.00 | 69 | 999.5 |
| 20260505030023 | 48 | 15 | 0.9 | 0.0 | 0.00 | 0.00 | 0.00 | 69 | 999.7 |
| 20260505024514 | 48 | 11 | 0.0 | 0.0 | 0.00 | 0.00 | 0.00 | 69 | 999.8 |
| 20260505023101 | 48 | 349 | 0.0 | 0.0 | 0.00 | 0.00 | 0.00 | 70 | 1000.1 |
| 20260505021546 | 49 | 24 | 0.9 | 0.0 | 0.00 | 0.00 | 0.00 | 67 | 999.8 |
| 20260505020039 | 49 | 16 | 1.7 | 0.0 | 0.00 | 0.00 | 0.00 | 67 | 999.7 |
| 20260505014527 | 51 | 22 | 0.9 | 0.0 | 0.00 | 0.00 | 0.00 | 65 | 999.2 |
| 20260505013007 | 53 | 17 | 0.0 | 0.0 | 0.00 | 0.00 | 0.00 | 57 | 1001.0 |
| 20260505011555 | 55 | 17 | 0.9 | 0.0 | 0.00 | 0.00 | 0.00 | 53 | 999.8 |
| 20260505010108 | 57 | 213 | 1.7 | 0.0 | 0.00 | 0.00 | 0.00 | 44 | 999.4 |
| 20260505004537 | 59 | 12 | 0.9 | 0.0 | 0.00 | 0.00 | 0.00 | 31 | 998.6 |
| 20260505003032 | 59 | 16 | 0.9 | 0.0 | 0.00 | 0.00 | 0.00 | 29 | 999.0 |
| 20260505001514 | 61 | 89 | 0.0 | 0.0 | 0.00 | 0.00 | 0.00 | 28 | 998.0 |
| 20260505000100 | 62 | 11 | 0.9 | 0.0 | 0.00 | 0.00 | 0.00 | 28 | 997.9 |
| 20260505000004 | 62 | 11 | 0.9 | 0.0 | 0.00 | 0.00 | 0.00 | 27 | 997.9 |
| 20260504234550 | 63 | 34 | 0.0 | 0.0 | 0.00 | 0.00 | 0.00 | 28 | 997.8 |
| 20260504233040 | 63 | 264 | 0.0 | 0.0 | 0.00 | 0.00 | 0.00 | 28 | 998.7 |
| 20260504231527 | 62 | 264 | 0.0 | 0.0 | 0.00 | 0.00 | 0.00 | 28 | 998.4 |
| 20260504230016 | 61 | 264 | 0.9 | 0.0 | 0.00 | 0.00 | 0.00 | 30 | 999.1 |
| 20260504224511 | 60 | 223 | 0.9 | 0.0 | 0.00 | 0.00 | 0.00 | 34 | 999.1 |
| 20260504223103 | 59 | 281 | 0.9 | 0.0 | 0.00 | 0.00 | 0.00 | 36 | 999.1 |
| 20260504223002 | 59 | 175 | 0.9 | 0.0 | 0.00 | 0.00 | 0.00 | 35 | 999.1 |
| 20260504221602 | 60 | 37 | 0.0 | 0.0 | 0.00 | 0.00 | 0.00 | 41 | 999.4 |
| 20260504220042 | 63 | 150 | 0.9 | 0.0 | 0.00 | 0.00 | 0.00 | 29 | 998.0 |
| 20260504214534 | 66 | 48 | 1.7 | 0.0 | 0.00 | 0.00 | 0.00 | 21 | 996.9 |
| 20260504213025 | 68 | 286 | 0.0 | 0.0 | 0.00 | 0.00 | 0.00 | 18 | 996.2 |
| 20260504211510 | 69 | 286 | 0.0 | 0.0 | 0.00 | 0.00 | 0.00 | 17 | 996.0 |
| 20260504210054 | 70 | 286 | 0.0 | 0.0 | 0.00 | 0.00 | 0.00 | 16 | 996.0 |
| 20260504204550 | 71 | 286 | 0.0 | 0.0 | 0.00 | 0.00 | 0.00 | 16 | 996.2 |
| 20260504203046 | 69 | 300 | 0.9 | 0.0 | 0.00 | 0.00 | 0.00 | 17 | 996.5 |
| 20260504201530 | 70 | 26 | 0.0 | 0.0 | 0.00 | 0.00 | 0.00 | 17 | 996.5 |
| 20260504200026 | 72 | 17 | 0.9 | 0.0 | 0.00 | 0.00 | 0.00 | 14 | 995.8 |
| 20260504194510 | 75 | 257 | 1.7 | 0.0 | 0.00 | 0.00 | 0.00 | 12 | 995.3 |
| 20260504193101 | 77 | 226 | 0.9 | 0.0 | 0.00 | 0.00 | 0.00 | 14 | 994.5 |
| 20260504191544 | 77 | 258 | 0.9 | 0.0 | 0.00 | 0.00 | 0.00 | 11 | 995.2 |
| 20260504190022 | 75 | 171 | 0.9 | 0.0 | 0.00 | 0.00 | 0.00 | 16 | 995.9 |
| 20260504184514 | 74 | 39 | 0.9 | 0.0 | 0.00 | 0.00 | 0.00 | 13 | 996.0 |
| 20260504183054 | 74 | 71 | 0.9 | 0.0 | 0.00 | 0.00 | 0.00 | 13 | 996.7 |
| 20260504181530 | 72 | 172 | 0.9 | 0.0 | 0.00 | 0.00 | 0.00 | 15 | 997.1 |
| 20260504180020 | 70 | 149 | 0.9 | 0.0 | 0.00 | 0.00 | 0.00 | 14 | 997.3 |
| 20260504174509 | 70 | 160 | 1.7 | 0.0 | 0.00 | 0.00 | 0.00 | 17 | 997.6 |
| 20260504173052 | 72 | 90 | 0.0 | 0.0 | 0.00 | 0.00 | 0.00 | 17 | 996.9 |